Time;durP1;ratioP1;P1;durP2;ratioP2;P2;SDS_P1;SDS_P2;PMS_P1;PMS_P2;Temp;Humidity;BMP_temperature;BMP_pressure;BME280_temperature;BME280_humidity;BME280_pressure;Samples;Min_cycle;Max_cycle;Signal;HPM_P1;HPM_P2
2022/12/03 00:00:28;;;;;;;47.80;17.20;;;;;;;1.81;100.00;102395.56;5049208;28;20472;-37
2022/12/03 00:02:53;;;;;;;45.40;18.23;;;;;;;1.78;100.00;102397.53;5050259;28;20122;-37
2022/12/03 00:05:18;;;;;;;41.30;16.15;;;;;;;1.77;100.00;102398.50;5050605;28;20123;-40
2022/12/03 00:07:44;;;;;;;43.40;16.55;;;;;;;1.78;100.00;102389.56;5050172;28;20074;-40
2022/12/03 00:10:10;;;;;;;40.80;15.57;;;;;;;1.78;100.00;102394.88;5051804;28;20112;-37
2022/12/03 00:12:35;;;;;;;40.83;16.13;;;;;;;1.74;100.00;102389.75;5054068;28;20395;-39
2022/12/03 00:15:01;;;;;;;42.95;17.33;;;;;;;1.71;100.00;102381.97;5050128;28;20085;-40
2022/12/03 00:17:26;;;;;;;36.38;16.10;;;;;;;1.75;100.00;102385.28;5049687;28;20043;-38
2022/12/03 00:19:51;;;;;;;41.40;16.42;;;;;;;1.77;100.00;102387.88;5050835;28;20029;-37
2022/12/03 00:22:17;;;;;;;38.05;16.08;;;;;;;1.77;100.00;102391.38;5061612;28;20120;-37
2022/12/03 00:24:42;;;;;;;38.55;16.42;;;;;;;1.78;100.00;102385.13;5069838;28;20107;-39
2022/12/03 00:27:07;;;;;;;40.92;15.68;;;;;;;1.80;100.00;102380.59;5069588;28;20125;-40
2022/12/03 00:29:33;;;;;;;39.05;15.32;;;;;;;1.80;100.00;102380.59;5069823;28;20020;-38
2022/12/03 00:31:58;;;;;;;36.28;15.60;;;;;;;1.82;100.00;102377.81;5064649;28;20032;-40
2022/12/03 00:34:23;;;;;;;41.75;16.45;;;;;;;1.79;100.00;102370.94;5070798;28;20025;-37
2022/12/03 00:36:48;;;;;;;36.75;15.38;;;;;;;1.77;100.00;102371.94;5065356;28;20032;-37
2022/12/03 00:39:14;;;;;;;42.53;15.85;;;;;;;1.75;100.00;102372.88;5066669;28;20028;-39
2022/12/03 00:41:39;;;;;;;38.75;15.63;;;;;;;1.77;100.00;102361.34;5060192;28;20036;-37
2022/12/03 00:44:04;;;;;;;40.47;15.65;;;;;;;1.75;100.00;102369.38;5049541;28;20052;-38
2022/12/03 00:46:30;;;;;;;39.40;16.67;;;;;;;1.74;100.00;102368.53;5049899;28;20029;-40
2022/12/03 00:48:55;;;;;;;40.28;16.02;;;;;;;1.75;100.00;102380.00;5049413;28;20386;-39
2022/12/03 00:51:20;;;;;;;37.15;15.40;;;;;;;1.71;100.00;102371.34;5057955;28;20029;-41
2022/12/03 00:53:46;;;;;;;39.08;15.73;;;;;;;1.75;100.00;102380.00;5049199;28;20040;-39
2022/12/03 00:56:11;;;;;;;40.70;15.57;;;;;;;1.77;100.00;102380.75;5049922;28;20044;-37
2022/12/03 00:58:37;;;;;;;42.03;15.60;;;;;;;1.75;100.00;102377.34;5049375;28;20046;-38
2022/12/03 01:01:02;;;;;;;43.83;16.58;;;;;;;1.76;100.00;102373.72;5056953;28;20028;-39
2022/12/03 01:03:28;;;;;;;42.17;16.63;;;;;;;1.73;100.00;102371.25;5069333;28;20375;-37
2022/12/03 01:05:53;;;;;;;42.17;15.95;;;;;;;1.73;100.00;102371.25;5057913;28;20033;-40
2022/12/03 01:08:18;;;;;;;38.22;15.85;;;;;;;1.77;100.00;102370.16;5049156;28;20112;-38
2022/12/03 01:10:44;;;;;;;38.97;15.45;;;;;;;1.76;100.00;102365.75;5053330;28;20017;-40
2022/12/03 01:13:09;;;;;;;42.20;16.90;;;;;;;1.77;100.00;102356.88;5070104;28;20025;-38
2022/12/03 01:15:34;;;;;;;39.92;16.52;;;;;;;1.73;100.00;102360.63;5072977;28;20099;-39
2022/12/03 01:18:00;;;;;;;43.17;15.73;;;;;;;1.73;100.00;102357.97;5072791;28;20046;-39
2022/12/03 01:20:25;;;;;;;41.22;15.70;;;;;;;1.71;100.00;102359.84;5069968;28;20422;-37
2022/12/03 01:22:51;;;;;;;44.83;15.52;;;;;;;1.76;100.00;102352.50;5052837;28;20108;-38
2022/12/03 01:25:16;;;;;;;41.97;16.02;;;;;;;1.78;100.00;102355.91;5052578;28;20107;-37
2022/12/03 01:27:41;;;;;;;44.17;17.67;;;;;;;1.75;100.00;102358.75;5053405;28;20680;-39
2022/12/03 01:30:07;;;;;;;41.08;16.42;;;;;;;1.79;100.00;102354.13;5052500;28;20112;-37
2022/12/03 01:32:33;;;;;;;36.88;15.30;;;;;;;1.81;100.00;102350.44;5072422;28;20161;-37
2022/12/03 01:34:58;;;;;;;39.65;16.75;;;;;;;1.85;100.00;102349.31;5072992;28;20032;-37
2022/12/03 01:37:25;;;;;;;39.53;14.93;;;;;;;1.87;100.00;102346.56;5057329;28;20053;-39
2022/12/03 01:39:51;;;;;;;41.85;17.10;;;;;;;1.85;100.00;102344.00;5052535;28;20116;-38
2022/12/03 01:42:19;;;;;;;38.00;15.30;;;;;;;1.90;100.00;102346.41;5057082;28;20028;-40
2022/12/03 01:44:44;;;;;;;35.67;15.00;;;;;;;1.92;100.00;102350.69;5064439;28;20024;-40
2022/12/03 01:47:13;;;;;;;42.15;16.98;;;;;;;1.95;100.00;102339.03;5053456;28;20029;-39
2022/12/03 01:49:45;;;;;;;39.15;15.88;;;;;;;1.97;100.00;102339.78;5051484;28;20033;-39
2022/12/03 01:52:13;;;;;;;39.65;16.33;;;;;;;1.96;100.00;102349.56;5069771;28;20024;-38
2022/12/03 01:54:41;;;;;;;44.17;16.33;;;;;;;1.94;100.00;102346.13;5053459;28;20024;-36
2022/12/03 01:57:23;;;;;;;40.60;16.08;;;;;;;1.96;100.00;102338.94;5053512;28;20109;-37
2022/12/03 01:59:49;;;;;;;42.30;15.60;;;;;;;1.99;100.00;102351.19;5056258;28;20033;-37
2022/12/03 02:02:23;;;;;;;42.35;15.35;;;;;;;1.93;100.00;102331.16;5067596;28;20050;-37
2022/12/03 02:04:49;;;;;;;41.83;16.92;;;;;;;1.95;100.00;102328.41;5059443;28;20402;-39
2022/12/03 02:07:34;;;;;;;42.35;17.15;;;;;;;1.94;100.00;102327.53;5072095;28;20059;-38
2022/12/03 02:10:01;;;;;;;43.10;16.45;;;;;;;1.94;100.00;102332.84;5054601;28;20120;-36
2022/12/03 02:12:31;;;;;;;42.00;15.95;;;;;;;1.97;100.00;102332.69;5064972;28;20036;-39
2022/12/03 02:14:57;;;;;;;46.33;16.92;;;;;;;1.97;100.00;102331.81;5071717;28;20036;-37
2022/12/03 02:17:22;;;;;;;42.55;17.15;;;;;;;1.94;100.00;102330.19;5063979;28;20066;-38
2022/12/03 02:19:48;;;;;;;39.30;16.27;;;;;;;1.99;100.00;102324.63;5056640;28;20055;-36
2022/12/03 02:22:31;;;;;;;37.08;16.63;;;;;;;1.96;100.00;102335.44;5054821;28;20029;-36
2022/12/03 02:25:16;;;;;;;39.38;16.27;;;;;;;1.93;100.00;102328.50;5051445;28;20417;-39
2022/12/03 02:27:42;;;;;;;42.33;16.98;;;;;;;1.92;100.00;102333.88;5051796;28;20551;-38
2022/12/03 02:30:08;;;;;;;48.92;17.65;;;;;;;1.88;100.00;102327.91;5051589;28;20029;-37
2022/12/03 02:32:34;;;;;;;45.33;16.02;;;;;;;1.90;100.00;102328.69;5052436;28;20036;-35
2022/12/03 02:34:59;;;;;;;44.00;16.40;;;;;;;1.90;100.00;102330.47;5051799;28;20032;-38
2022/12/03 02:37:29;;;;;;;40.28;15.35;;;;;;;1.87;100.00;102326.19;5052247;28;20087;-36
2022/12/03 02:39:57;;;;;;;40.83;16.42;;;;;;;1.91;100.00;102332.19;5055883;28;20028;-36
2022/12/03 02:42:35;;;;;;;39.00;16.27;;;;;;;1.90;100.00;102333.13;5056091;28;20036;-40
2022/12/03 02:45:10;;;;;;;35.78;15.73;;;;;;;1.88;100.00;102324.41;5060339;28;20063;-41
2022/12/03 02:47:40;;;;;;;43.15;16.75;;;;;;;1.89;100.00;102321.63;5071184;28;20086;-38
2022/12/03 02:50:06;;;;;;;46.67;16.60;;;;;;;1.91;100.00;102325.06;5069273;28;20204;-38
2022/12/03 02:52:31;;;;;;;41.53;16.27;;;;;;;1.89;100.00;102324.28;5068739;28;20040;-38
2022/12/03 02:54:57;;;;;;;42.25;17.63;;;;;;;1.86;100.00;102319.16;5069618;28;20017;-37
2022/12/03 02:57:22;;;;;;;40.95;17.52;;;;;;;1.87;100.00;102320.91;5071247;28;20107;-39
2022/12/03 02:59:48;;;;;;;42.83;17.05;;;;;;;1.88;100.00;102319.94;5070101;28;20036;-37
2022/12/03 03:02:13;;;;;;;38.03;15.25;;;;;;;1.86;100.00;102305.91;5070443;28;20028;-36
2022/12/03 03:04:40;;;;;;;38.38;15.65;;;;;;;1.87;100.00;102310.28;5070988;28;20398;-36
2022/12/03 03:07:05;;;;;;;38.00;14.98;;;;;;;1.84;100.00;102304.28;5070091;28;20480;-41
2022/12/03 03:09:31;;;;;;;41.30;16.30;;;;;;;1.85;100.00;102303.34;5068413;28;20055;-39
2022/12/03 03:11:57;;;;;;;40.83;17.27;;;;;;;1.86;100.00;102305.03;5051921;28;20037;-36
2022/12/03 03:14:22;;;;;;;42.85;16.73;;;;;;;1.88;100.00;102301.34;5050717;28;20581;-38
2022/12/03 03:16:54;;;;;;;41.17;16.63;;;;;;;1.89;100.00;102308.34;5050069;28;20028;-37
2022/12/03 03:19:22;;;;;;;43.25;17.50;;;;;;;1.86;100.00;102303.25;5051048;28;20025;-39
2022/12/03 03:21:47;;;;;;;44.00;16.42;;;;;;;1.85;100.00;102306.00;5069661;28;20451;-36
2022/12/03 03:24:13;;;;;;;37.80;15.20;;;;;;;1.85;100.00;102306.00;5070784;28;20028;-37
2022/12/03 03:26:38;;;;;;;41.40;16.40;;;;;;;1.82;100.00;102304.38;5066750;28;20063;-39
2022/12/03 03:29:03;;;;;;;39.70;16.02;;;;;;;1.86;100.00;102295.28;5050593;28;20025;-36
2022/12/03 03:31:29;;;;;;;43.47;16.20;;;;;;;1.83;100.00;102303.41;5066775;28;20075;-37
2022/12/03 03:33:54;;;;;;;46.17;18.23;;;;;;;1.86;100.00;102303.25;5070237;28;20035;-37
2022/12/03 03:36:20;;;;;;;40.25;16.20;;;;;;;1.87;100.00;102294.34;5069027;28;20513;-36
2022/12/03 03:38:46;;;;;;;40.05;16.15;;;;;;;1.90;100.00;102294.16;5052698;28;20112;-36
2022/12/03 03:41:11;;;;;;;43.60;16.73;;;;;;;1.90;100.00;102298.63;5060202;28;20033;-36
2022/12/03 03:43:37;;;;;;;41.90;16.25;;;;;;;1.92;100.00;102297.59;5050912;28;20372;-37
2022/12/03 03:46:04;;;;;;;41.33;16.27;;;;;;;1.91;100.00;102289.69;5050207;28;20033;-37
2022/12/03 03:48:29;;;;;;;38.28;16.35;;;;;;;1.89;100.00;102297.75;5050382;28;20115;-38
2022/12/03 03:50:55;;;;;;;38.30;16.95;;;;;;;1.90;100.00;102299.47;5063161;28;20602;-36
2022/12/03 03:53:20;;;;;;;41.05;16.33;;;;;;;1.95;100.00;102293.91;5069651;28;20068;-38
2022/12/03 03:55:46;;;;;;;41.72;16.85;;;;;;;1.93;100.00;102288.66;5070170;28;20036;-37
2022/12/03 03:58:11;;;;;;;41.25;16.15;;;;;;;1.94;100.00;102290.38;5070101;28;20042;-37
2022/12/03 04:00:37;;;;;;;41.55;15.77;;;;;;;1.94;100.00;102290.38;5066733;28;20084;-37
2022/12/03 04:03:03;;;;;;;41.20;17.05;;;;;;;1.91;100.00;102290.56;5070108;28;20408;-39
2022/12/03 04:05:29;;;;;;;38.05;16.30;;;;;;;1.93;100.00;102285.16;5057638;28;20025;-39
2022/12/03 04:07:54;;;;;;;39.05;15.25;;;;;;;1.94;100.00;102287.72;5056408;28;20031;-40
2022/12/03 04:13:04;;;;;;;37.30;15.65;;;;;;;1.94;100.00;102278.91;5053733;28;20048;-37
2022/12/03 04:15:29;;;;;;;40.22;16.02;;;;;;;1.96;100.00;102272.56;5053144;28;20345;-36
2022/12/03 04:20:39;;;;;;;40.05;15.80;;;;;;;1.99;100.00;102276.81;5069176;28;20043;-37
2022/12/03 04:23:04;;;;;;;43.55;17.38;;;;;;;2.01;100.00;102271.44;5069864;28;20403;-37
2022/12/03 04:30:57;;;;;;;42.35;15.95;;;;;;;2.03;100.00;102256.25;5066113;28;20044;-39
2022/12/03 04:36:07;;;;;;;42.58;16.40;;;;;;;2.02;100.00;102260.69;5069015;28;20082;-37
2022/12/03 04:38:32;;;;;;;39.55;16.65;;;;;;;2.06;100.00;102250.78;5070971;28;20029;-38
2022/12/03 04:41:02;;;;;;;43.65;18.73;;;;;;;2.07;100.00;102253.31;5059169;28;20060;-37
2022/12/03 04:43:29;;;;;;;41.35;16.20;;;;;;;2.12;100.00;102250.41;5051286;28;20039;-39
2022/12/03 04:45:54;;;;;;;45.65;17.40;;;;;;;2.13;100.00;102252.97;5049875;28;20025;-39
2022/12/03 04:48:19;;;;;;;38.35;15.75;;;;;;;2.14;100.00;102248.50;5053426;28;20124;-39
2022/12/03 04:50:45;;;;;;;46.10;18.60;;;;;;;2.14;100.00;102249.34;5065402;28;20060;-40
2022/12/03 04:53:10;;;;;;;43.15;16.30;;;;;;;2.16;100.00;102246.63;5071230;28;20115;-37
2022/12/03 04:55:35;;;;;;;39.25;16.33;;;;;;;2.18;100.00;102239.38;5072747;28;20024;-38
2022/12/03 04:58:01;;;;;;;44.80;16.67;;;;;;;2.16;100.00;102241.31;5051806;28;20337;-38
2022/12/03 05:00:26;;;;;;;40.33;16.35;;;;;;;2.17;100.00;102240.34;5052429;28;20150;-37
2022/12/03 05:02:52;;;;;;;38.67;16.10;;;;;;;2.23;100.00;102247.09;5054773;28;20040;-38
2022/12/03 05:05:17;;;;;;;47.53;17.30;;;;;;;2.27;100.00;102246.81;5054191;28;20384;-39
2022/12/03 05:07:42;;;;;;;41.70;16.17;;;;;;;2.27;100.00;102244.16;5066547;28;20035;-36
2022/12/03 05:10:09;;;;;;;43.78;17.15;;;;;;;2.27;100.00;102244.16;5059437;28;20021;-37
2022/12/03 05:12:34;;;;;;;47.22;17.08;;;;;;;2.25;100.00;102240.72;5068545;28;20175;-39
2022/12/03 05:15:00;;;;;;;40.00;16.08;;;;;;;2.30;100.00;102238.66;5072678;28;20056;-38
2022/12/03 05:17:25;;;;;;;45.90;17.88;;;;;;;2.27;100.00;102248.63;5072632;28;20032;-39
2022/12/03 05:22:34;;;;;;;44.75;17.35;;;;;;;2.35;100.00;102241.88;5054052;28;20194;-37
2022/12/03 05:24:59;;;;;;;49.58;17.60;;;;;;;2.33;100.00;102248.25;5068767;28;20136;-39
2022/12/03 05:27:25;;;;;;;44.20;17.95;;;;;;;2.33;100.00;102251.75;5070943;28;20125;-36
2022/12/03 05:29:50;;;;;;;46.65;19.05;;;;;;;2.33;100.00;102238.47;5072529;28;20048;-38
2022/12/03 05:32:16;;;;;;;52.65;18.52;;;;;;;2.32;100.00;102234.09;5071117;28;20060;-40
2022/12/03 05:34:41;;;;;;;50.53;18.88;;;;;;;2.32;100.00;102231.44;5072666;28;20024;-39
2022/12/03 05:37:06;;;;;;;47.17;19.05;;;;;;;2.35;100.00;102230.41;5055965;28;20044;-40
2022/12/03 05:39:32;;;;;;;48.53;18.65;;;;;;;2.32;100.00;102223.47;5055903;28;20032;-36
2022/12/03 05:44:41;;;;;;;37.22;16.27;;;;;;;2.30;100.00;102228.03;5071991;28;20051;-36
2022/12/03 05:47:06;;;;;;;44.25;19.17;;;;;;;2.29;100.00;102230.75;5063250;28;20024;-39
2022/12/03 05:49:32;;;;;;;45.92;17.42;;;;;;;2.31;100.00;102227.06;5063367;28;20040;-38
2022/12/03 05:51:57;;;;;;;42.38;16.85;;;;;;;2.30;100.00;102225.38;5052492;28;20333;-36
2022/12/03 05:54:22;;;;;;;43.78;17.58;;;;;;;2.31;100.00;102215.59;5060045;28;20066;-38
2022/12/03 05:56:48;;;;;;;48.38;19.50;;;;;;;2.31;100.00;102221.75;5072597;28;20027;-38
2022/12/03 05:59:13;;;;;;;48.58;19.20;;;;;;;2.32;100.00;102210.19;5070357;28;20067;-36
2022/12/03 06:01:38;;;;;;;42.30;17.98;;;;;;;2.31;100.00;102213.78;5052441;28;20021;-40
2022/12/03 06:04:04;;;;;;;43.78;18.88;;;;;;;2.29;100.00;102207.72;5052604;28;20032;-38
2022/12/03 06:06:29;;;;;;;52.33;20.10;;;;;;;2.26;100.00;102209.72;5055804;28;20044;-38
2022/12/03 06:08:54;;;;;;;47.22;18.98;;;;;;;2.33;100.00;102203.06;5061646;28;20620;-39
2022/12/03 06:11:20;;;;;;;48.50;18.70;;;;;;;2.32;100.00;102207.53;5067336;28;20123;-40
2022/12/03 06:13:45;;;;;;;44.88;17.52;;;;;;;2.34;100.00;102199.47;5060131;28;20039;-40
2022/12/03 06:16:10;;;;;;;49.45;18.70;;;;;;;2.32;100.00;102194.25;5062014;28;20055;-39
2022/12/03 06:18:36;;;;;;;49.30;19.23;;;;;;;2.36;100.00;102206.38;5051467;28;20025;-38
2022/12/03 06:21:01;;;;;;;46.05;19.35;;;;;;;2.36;100.00;102205.53;5051798;28;20036;-40
2022/12/03 06:23:26;;;;;;;48.05;19.55;;;;;;;2.36;100.00;102201.06;5062631;28;20075;-40
2022/12/03 06:25:52;;;;;;;44.80;19.38;;;;;;;2.30;100.00;102201.47;5070519;28;20036;-40
2022/12/03 06:28:17;;;;;;;50.25;20.65;;;;;;;2.31;100.00;102200.50;5069746;28;20043;-39
2022/12/03 06:30:43;;;;;;;47.30;18.35;;;;;;;2.32;100.00;102194.25;5072143;28;20056;-38
2022/12/03 06:33:08;;;;;;;46.45;18.42;;;;;;;2.24;100.00;102191.22;5058657;28;20024;-38
2022/12/03 06:35:35;;;;;;;48.85;19.33;;;;;;;2.28;100.00;102190.06;5069548;28;20107;-38
2022/12/03 06:38:00;;;;;;;42.83;18.30;;;;;;;2.31;100.00;102195.19;5056983;28;20059;-37
2022/12/03 06:40:26;;;;;;;47.72;18.92;;;;;;;2.29;100.00;102189.13;5052484;28;20024;-39
2022/12/03 06:42:51;;;;;;;47.25;18.23;;;;;;;2.31;100.00;102194.34;5052385;28;20029;-40
2022/12/03 06:45:16;;;;;;;48.20;18.90;;;;;;;2.29;100.00;102189.13;5057868;28;20115;-40
2022/12/03 06:47:42;;;;;;;46.45;18.15;;;;;;;2.19;100.00;102188.00;5067871;28;20032;-38
2022/12/03 06:50:08;;;;;;;42.33;17.70;;;;;;;2.27;100.00;102182.22;5053212;28;20036;-39
2022/12/03 06:52:33;;;;;;;45.17;17.45;;;;;;;2.27;100.00;102185.72;5066536;28;20430;-38
2022/12/03 06:54:59;;;;;;;41.78;17.88;;;;;;;2.29;100.00;102186.47;5069103;28;20028;-39
2022/12/03 06:57:24;;;;;;;41.50;15.77;;;;;;;2.28;100.00;102179.44;5065166;28;20033;-39
2022/12/03 06:59:49;;;;;;;39.42;17.55;;;;;;;2.32;100.00;102188.94;5066694;28;20055;-37
2022/12/03 07:02:15;;;;;;;45.85;18.70;;;;;;;2.28;100.00;102183.91;5071535;28;20039;-39
2022/12/03 07:04:40;;;;;;;42.92;17.80;;;;;;;2.29;100.00;102194.44;5071413;28;20093;-39
2022/12/03 07:07:05;;;;;;;42.55;17.80;;;;;;;2.31;100.00;102202.31;5068981;28;20025;-36
2022/12/03 07:09:31;;;;;;;44.35;18.00;;;;;;;2.29;100.00;102193.56;5052658;28;20028;-39
2022/12/03 07:11:56;;;;;;;40.65;17.65;;;;;;;2.31;100.00;102192.53;5050724;28;20078;-39
2022/12/03 07:14:21;;;;;;;44.80;18.38;;;;;;;2.33;100.00;102195.94;5057425;28;20134;-39
2022/12/03 07:16:47;;;;;;;50.00;19.17;;;;;;;2.31;100.00;102192.53;5056363;28;20025;-37
2022/12/03 07:19:12;;;;;;;47.08;17.17;;;;;;;2.30;100.00;102205.94;5050174;28;20028;-37
2022/12/03 07:21:38;;;;;;;38.78;16.48;;;;;;;2.32;100.00;102206.69;5050368;28;20037;-37
2022/12/03 07:24:04;;;;;;;40.30;16.98;;;;;;;2.30;100.00;102204.13;5050416;28;20025;-38
2022/12/03 07:26:29;;;;;;;40.22;16.15;;;;;;;2.28;100.00;102199.84;5050495;28;20122;-37
2022/12/03 07:28:55;;;;;;;42.60;17.65;;;;;;;2.31;100.00;102194.34;5051875;28;20055;-38
2022/12/03 07:31:20;;;;;;;37.38;16.48;;;;;;;2.33;100.00;102195.09;5051955;28;20387;-38
2022/12/03 07:33:45;;;;;;;45.25;18.20;;;;;;;2.31;100.00;102192.53;5050067;28;20488;-38
2022/12/03 07:36:11;;;;;;;39.53;17.35;;;;;;;2.31;100.00;102197.84;5048641;28;20021;-39
2022/12/03 07:38:36;;;;;;;41.28;18.20;;;;;;;2.29;100.00;102198.88;5049956;28;20558;-40
2022/12/03 07:41:01;;;;;;;40.58;16.20;;;;;;;2.32;100.00;102198.72;5050080;28;20023;-39
2022/12/03 07:43:27;;;;;;;43.45;18.00;;;;;;;2.31;100.00;102197.00;5050378;28;20423;-37
2022/12/03 07:45:52;;;;;;;42.28;17.73;;;;;;;2.31;100.00;102197.84;5049644;28;20104;-38
2022/12/03 07:48:17;;;;;;;40.38;17.15;;;;;;;2.31;100.00;102195.19;5051622;28;20121;-40
2022/12/03 07:50:43;;;;;;;41.55;17.40;;;;;;;2.28;100.00;102203.34;5049694;28;20116;-40
2022/12/03 07:53:08;;;;;;;44.50;18.35;;;;;;;2.31;100.00;102211.13;5049942;28;20035;-37
2022/12/03 07:55:33;;;;;;;42.67;17.50;;;;;;;2.30;100.00;102205.94;5050243;28;20499;-39
2022/12/03 07:57:59;;;;;;;49.53;19.45;;;;;;;2.27;100.00;102206.97;5052041;28;20067;-39
2022/12/03 08:00:24;;;;;;;49.13;18.02;;;;;;;2.26;100.00;102204.41;5061109;28;20033;-40
2022/12/03 08:02:49;;;;;;;41.08;18.23;;;;;;;2.24;100.00;102196.53;5049727;28;20033;-38
2022/12/03 08:05:15;;;;;;;42.03;18.13;;;;;;;2.25;100.00;102192.91;5065777;28;20032;-38
2022/12/03 08:07:40;;;;;;;43.60;17.98;;;;;;;2.24;100.00;102198.31;5069940;28;20029;-38
2022/12/03 08:10:06;;;;;;;42.35;19.25;;;;;;;2.23;100.00;102189.50;5069640;28;20029;-40
2022/12/03 08:12:38;;;;;;;48.97;19.92;;;;;;;2.23;100.00;102205.44;5069806;28;20028;-37
2022/12/03 08:15:15;;;;;;;49.08;19.20;;;;;;;2.19;100.00;102199.47;5068687;28;20041;-39
2022/12/03 08:17:41;;;;;;;48.63;21.20;;;;;;;2.19;100.00;102198.63;5069854;28;20475;-40
2022/12/03 08:20:18;;;;;;;54.80;20.27;;;;;;;2.21;100.00;102191.38;5070252;28;20033;-40
2022/12/03 08:22:46;;;;;;;41.75;18.17;;;;;;;2.22;100.00;102201.09;5073127;28;20111;-38
2022/12/03 08:25:19;;;;;;;51.28;19.90;;;;;;;2.24;100.00;102196.53;5074257;28;20028;-37
2022/12/03 08:27:44;;;;;;;46.50;19.13;;;;;;;2.26;100.00;102189.31;5074308;28;20036;-39
2022/12/03 08:30:14;;;;;;;48.92;19.58;;;;;;;2.26;100.00;102189.31;5074116;28;20116;-39
2022/12/03 08:32:39;;;;;;;50.92;20.48;;;;;;;2.19;100.00;102195.97;5074535;28;20037;-37
2022/12/03 08:35:21;;;;;;;50.00;20.33;;;;;;;2.22;100.00;102200.25;5061115;28;20542;-38
2022/12/03 08:37:49;;;;;;;46.03;19.83;;;;;;;2.15;100.00;102189.97;5054308;28;20025;-38
2022/12/03 08:40:21;;;;;;;54.50;21.35;;;;;;;2.19;100.00;102183.53;5052793;28;20040;-38
2022/12/03 08:42:46;;;;;;;53.97;21.35;;;;;;;2.19;100.00;102180.03;5054325;28;20021;-39
2022/12/03 08:45:27;;;;;;;53.45;21.80;;;;;;;2.17;100.00;102173.94;5054061;28;20036;-39
2022/12/03 08:48:19;;;;;;;53.53;20.55;;;;;;;2.16;100.00;102172.25;5054209;28;20033;-39
2022/12/03 08:50:45;;;;;;;51.03;20.45;;;;;;;2.15;100.00;102171.38;5053879;28;20044;-38
2022/12/03 08:53:19;;;;;;;51.00;20.90;;;;;;;2.17;100.00;102173.94;5054200;28;20060;-37
2022/12/03 08:55:47;;;;;;;51.55;21.23;;;;;;;2.14;100.00;102180.31;5054125;28;20032;-37
2022/12/03 08:58:31;;;;;;;53.60;21.00;;;;;;;2.13;100.00;102175.94;5052788;28;20024;-37
2022/12/03 09:01:19;;;;;;;43.90;18.63;;;;;;;2.11;100.00;102169.88;5053434;28;20029;-37
2022/12/03 09:03:46;;;;;;;;;;;;;;;2.11;100.00;102182.31;5052900;28;20051;-39
2022/12/03 09:06:12;;;;;;;53.20;21.97;;;;;;;2.04;100.00;102178.31;5051988;28;19905;-37
2022/12/03 09:08:37;;;;;;;54.85;20.10;;;;;;;2.05;100.00;102180.84;5053383;28;20155;-40
2022/12/03 09:11:02;;;;;;;51.78;21.45;;;;;;;2.05;100.00;102177.34;5053048;28;20442;-37
2022/12/03 09:13:28;;;;;;;56.95;23.58;;;;;;;2.08;100.00;102179.81;5053330;28;20061;-39
2022/12/03 09:15:53;;;;;;;54.42;22.65;;;;;;;2.05;100.00;102178.19;5053144;28;20550;-38
2022/12/03 09:18:18;;;;;;;54.22;22.23;;;;;;;2.09;100.00;102176.22;5053001;28;20586;-37
2022/12/03 09:20:44;;;;;;;52.22;21.42;;;;;;;2.12;100.00;102168.06;5053029;28;20098;-39
2022/12/03 09:23:09;;;;;;;52.90;20.48;;;;;;;2.08;100.00;102170.06;5053104;28;20086;-39
2022/12/03 09:25:34;;;;;;;47.17;19.95;;;;;;;2.00;100.00;102182.09;5052715;28;20033;-39
2022/12/03 09:28:00;;;;;;;60.72;19.67;;;;;;;2.02;100.00;102173.06;5052927;28;20472;-37
2022/12/03 09:30:25;;;;;;;46.33;20.75;;;;;;;1.96;100.00;102176.97;5052885;28;20017;-39
2022/12/03 09:32:50;;;;;;;46.83;20.73;;;;;;;1.98;100.00;102169.75;5052371;28;20057;-37
2022/12/03 09:35:16;;;;;;;51.97;18.77;;;;;;;1.94;100.00;102176.19;5052806;28;20024;-39
2022/12/03 09:37:41;;;;;;;41.58;18.67;;;;;;;1.95;100.00;102169.97;5052706;28;20045;-39
2022/12/03 09:40:08;;;;;;;52.63;20.98;;;;;;;1.93;100.00;102144.44;5052793;28;20492;-38
2022/12/03 09:42:33;;;;;;;55.50;19.77;;;;;;;1.92;100.00;102162.19;5052812;28;20111;-39
2022/12/03 09:44:59;;;;;;;49.22;20.05;;;;;;;2.01;100.00;102162.56;5051615;28;20032;-39
2022/12/03 09:47:24;;;;;;;44.25;19.98;;;;;;;2.06;100.00;102157.84;5052556;28;20044;-40
2022/12/03 09:49:50;;;;;;;49.80;21.05;;;;;;;2.08;100.00;102171.84;5052938;28;20029;-38
2022/12/03 09:52:22;;;;;;;43.67;17.98;;;;;;;2.12;100.00;102168.06;5052503;28;20518;-37
2022/12/03 09:54:47;;;;;;;46.25;18.30;;;;;;;2.17;100.00;102160.66;5052659;28;20028;-39
2022/12/03 09:57:13;;;;;;;48.00;19.25;;;;;;;2.16;100.00;102162.47;5052012;28;20029;-37
2022/12/03 09:59:38;;;;;;;46.22;19.20;;;;;;;2.14;100.00;102163.53;5052501;28;20025;-40
2022/12/03 10:02:21;;;;;;;44.55;20.45;;;;;;;2.17;100.00;102158.00;5052508;28;20056;-38
2022/12/03 10:04:47;;;;;;;45.78;19.73;;;;;;;2.19;100.00;102156.13;5053246;28;20086;-38
2022/12/03 10:07:12;;;;;;;45.28;19.55;;;;;;;2.21;100.00;102162.16;5067666;28;20437;-39
2022/12/03 10:09:37;;;;;;;47.47;19.27;;;;;;;2.23;100.00;102157.63;5052266;28;20048;-37
2022/12/03 10:12:03;;;;;;;40.75;17.77;;;;;;;2.22;100.00;102155.94;5052034;28;20016;-39
2022/12/03 10:14:29;;;;;;;46.97;18.95;;;;;;;2.24;100.00;102154.03;5051874;28;20353;-39
2022/12/03 10:16:54;;;;;;;38.65;18.25;;;;;;;2.21;100.00;102159.50;5052001;28;20110;-37
2022/12/03 10:19:39;;;;;;;46.78;19.48;;;;;;;2.25;100.00;102165.50;5050418;28;20163;-37
2022/12/03 10:22:04;;;;;;;45.85;19.05;;;;;;;2.30;100.00;102150.97;5051895;28;20448;-37
2022/12/03 10:24:31;;;;;;;41.10;18.60;;;;;;;2.32;100.00;102158.88;5051746;28;20090;-40
2022/12/03 10:27:19;;;;;;;43.13;18.53;;;;;;;2.32;100.00;102148.25;5052212;28;20044;-39
2022/12/03 10:29:58;;;;;;;43.55;18.83;;;;;;;2.35;100.00;102146.25;5051185;28;20033;-40
2022/12/03 10:32:26;;;;;;;44.35;18.02;;;;;;;2.32;100.00;102140.28;5051896;28;20097;-37
2022/12/03 10:35:06;;;;;;;40.72;17.38;;;;;;;2.28;100.00;102136.94;5052648;28;20451;-38
2022/12/03 10:37:31;;;;;;;41.80;17.60;;;;;;;2.26;100.00;102136.19;5055147;28;20033;-37
2022/12/03 10:40:11;;;;;;;42.10;18.95;;;;;;;2.22;100.00;102142.66;5051460;28;20048;-37
2022/12/03 10:42:38;;;;;;;43.15;17.90;;;;;;;2.20;100.00;102136.56;5057564;28;20032;-38
2022/12/03 10:45:18;;;;;;;41.50;17.63;;;;;;;2.14;100.00;102136.97;5059429;28;20460;-38
2022/12/03 10:48:01;;;;;;;47.10;17.88;;;;;;;2.14;100.00;102134.31;5069464;28;20036;-39
2022/12/03 10:50:27;;;;;;;42.70;18.45;;;;;;;2.18;100.00;102126.03;5059799;28;20119;-38
2022/12/03 10:52:52;;;;;;;54.47;20.05;;;;;;;2.11;100.00;102131.84;5054497;28;20151;-39
2022/12/03 10:55:17;;;;;;;42.90;18.92;;;;;;;2.10;100.00;102120.34;5051511;28;20123;-38
2022/12/03 10:57:43;;;;;;;46.70;19.08;;;;;;;2.13;100.00;102119.31;5051362;28;20451;-37
2022/12/03 11:00:15;;;;;;;47.67;20.63;;;;;;;2.07;100.00;102125.00;5052582;28;20388;-39
2022/12/03 11:02:41;;;;;;;52.80;21.25;;;;;;;2.05;100.00;102121.59;5079006;28;20044;-37
2022/12/03 11:05:11;;;;;;;52.45;20.00;;;;;;;2.01;100.00;102120.94;5074460;28;20058;-41
2022/12/03 11:07:37;;;;;;;55.42;21.17;;;;;;;1.98;100.00;102111.34;5056509;28;20123;-38
2022/12/03 11:10:05;;;;;;;56.38;21.95;;;;;;;1.95;100.00;102108.88;5053468;28;20814;-39
2022/12/03 11:12:33;;;;;;;56.88;22.15;;;;;;;1.87;100.00;102100.56;5067360;28;20024;-37
2022/12/03 11:15:05;;;;;;;56.13;22.23;;;;;;;1.85;100.00;102094.47;5059089;28;20035;-39
2022/12/03 11:17:51;;;;;;;57.88;21.77;;;;;;;1.81;100.00;102100.91;5063339;28;20044;-38
2022/12/03 11:20:19;;;;;;;55.42;21.73;;;;;;;1.83;100.00;102098.16;5053624;28;20021;-39
2022/12/03 11:22:48;;;;;;;;;;;;;;;1.78;100.00;102098.44;5050156;28;20101;-40
2022/12/03 11:25:25;;;;;;;56.05;21.38;;;;;;;1.78;100.00;102092.28;5061284;28;19928;-38
2022/12/03 11:28:09;;;;;;;66.72;23.45;;;;;;;1.80;100.00;102093.91;5085656;28;20421;-37